Terminal Aerodrome Forecast
Issued by NWS

Home | Current Version | Previous Version | Text Only | Print | Product List | Glossary On
Versions: 1 2 3 4 5 6 7 8 9 10 11 12 13 14 15 16 17 18 19 20 21 22 23 24 25
000
FTUS41 KALY 280538
TAFPSF
TAF
KPSF 280538Z 2806/0106 23005KT P6SM BKN090
     FM280900 VRB03KT P6SM VCSH OVC040
     FM281500 15006KT P6SM BKN040 OVC090
     FM282300 14005KT P6SM VCSH SCT015 OVC040
     FM010200 15005KT 2SM -RA BR SCT006 OVC015 WS020/18040KT=

USA.gov is the U.S. government's official web portal to all federal, state and local government web resources and services.